sensor_id;sensor_type;location;lat;lon;timestamp;P1;durP1;ratioP1;P2;durP2;ratioP2
42244;SDS011;27912;51.828;5.688;2024-01-30T00:01:35;12.45;;;8.05;;
42244;SDS011;27912;51.828;5.688;2024-01-30T00:04:01;13.23;;;8.10;;
42244;SDS011;27912;51.828;5.688;2024-01-30T00:06:27;12.65;;;7.82;;
42244;SDS011;27912;51.828;5.688;2024-01-30T00:08:53;15.60;;;8.15;;
42244;SDS011;27912;51.828;5.688;2024-01-30T00:11:18;16.48;;;8.27;;
42244;SDS011;27912;51.828;5.688;2024-01-30T00:13:44;14.20;;;8.27;;
42244;SDS011;27912;51.828;5.688;2024-01-30T00:16:19;11.45;;;8.13;;
42244;SDS011;27912;51.828;5.688;2024-01-30T00:18:45;12.25;;;8.02;;
42244;SDS011;27912;51.828;5.688;2024-01-30T00:21:11;13.73;;;8.35;;
42244;SDS011;27912;51.828;5.688;2024-01-30T00:23:37;14.10;;;7.40;;
42244;SDS011;27912;51.828;5.688;2024-01-30T00:26:02;10.95;;;7.53;;
42244;SDS011;27912;51.828;5.688;2024-01-30T00:28:28;13.10;;;8.25;;
42244;SDS011;27912;51.828;5.688;2024-01-30T00:30:53;11.40;;;8.15;;
42244;SDS011;27912;51.828;5.688;2024-01-30T00:33:19;13.82;;;7.68;;
42244;SDS011;27912;51.828;5.688;2024-01-30T00:35:44;12.70;;;8.13;;
42244;SDS011;27912;51.828;5.688;2024-01-30T00:38:10;12.60;;;7.22;;
42244;SDS011;27912;51.828;5.688;2024-01-30T00:40:35;10.52;;;7.70;;
42244;SDS011;27912;51.828;5.688;2024-01-30T00:43:01;16.15;;;8.88;;
42244;SDS011;27912;51.828;5.688;2024-01-30T00:45:27;13.50;;;8.27;;
42244;SDS011;27912;51.828;5.688;2024-01-30T00:47:52;14.93;;;8.30;;
42244;SDS011;27912;51.828;5.688;2024-01-30T00:50:18;13.50;;;7.80;;
42244;SDS011;27912;51.828;5.688;2024-01-30T00:52:44;12.98;;;8.57;;
42244;SDS011;27912;51.828;5.688;2024-01-30T00:55:10;15.10;;;8.82;;
42244;SDS011;27912;51.828;5.688;2024-01-30T00:57:36;13.15;;;8.75;;
42244;SDS011;27912;51.828;5.688;2024-01-30T01:00:02;15.30;;;8.82;;
42244;SDS011;27912;51.828;5.688;2024-01-30T01:02:28;16.38;;;9.07;;
42244;SDS011;27912;51.828;5.688;2024-01-30T01:04:54;12.82;;;9.10;;
42244;SDS011;27912;51.828;5.688;2024-01-30T01:07:19;15.68;;;9.07;;
42244;SDS011;27912;51.828;5.688;2024-01-30T01:09:45;13.40;;;9.15;;
42244;SDS011;27912;51.828;5.688;2024-01-30T01:12:10;14.38;;;8.55;;
42244;SDS011;27912;51.828;5.688;2024-01-30T01:14:36;14.20;;;9.38;;
42244;SDS011;27912;51.828;5.688;2024-01-30T01:17:01;13.00;;;8.80;;
42244;SDS011;27912;51.828;5.688;2024-01-30T01:19:27;15.52;;;8.95;;
42244;SDS011;27912;51.828;5.688;2024-01-30T01:21:53;15.40;;;9.13;;
42244;SDS011;27912;51.828;5.688;2024-01-30T01:24:18;17.15;;;9.38;;
42244;SDS011;27912;51.828;5.688;2024-01-30T01:26:44;13.98;;;8.65;;
42244;SDS011;27912;51.828;5.688;2024-01-30T01:29:09;14.93;;;8.63;;
42244;SDS011;27912;51.828;5.688;2024-01-30T01:31:37;15.75;;;9.55;;
42244;SDS011;27912;51.828;5.688;2024-01-30T01:34:12;13.25;;;9.05;;
42244;SDS011;27912;51.828;5.688;2024-01-30T01:36:38;16.55;;;9.85;;
42244;SDS011;27912;51.828;5.688;2024-01-30T01:39:04;15.82;;;10.13;;
42244;SDS011;27912;51.828;5.688;2024-01-30T01:41:33;14.00;;;8.95;;
42244;SDS011;27912;51.828;5.688;2024-01-30T01:43:59;15.25;;;9.80;;
42244;SDS011;27912;51.828;5.688;2024-01-30T01:46:28;16.02;;;9.07;;
42244;SDS011;27912;51.828;5.688;2024-01-30T01:51:23;13.38;;;8.02;;
42244;SDS011;27912;51.828;5.688;2024-01-30T01:53:52;13.75;;;8.55;;
42244;SDS011;27912;51.828;5.688;2024-01-30T01:56:19;15.15;;;9.32;;
42244;SDS011;27912;51.828;5.688;2024-01-30T01:58:46;15.48;;;9.02;;
42244;SDS011;27912;51.828;5.688;2024-01-30T02:01:13;13.60;;;9.25;;
42244;SDS011;27912;51.828;5.688;2024-01-30T02:03:40;12.82;;;8.50;;
42244;SDS011;27912;51.828;5.688;2024-01-30T02:06:06;13.80;;;9.05;;
42244;SDS011;27912;51.828;5.688;2024-01-30T02:08:32;14.40;;;8.85;;
42244;SDS011;27912;51.828;5.688;2024-01-30T02:10:58;16.80;;;9.77;;
42244;SDS011;27912;51.828;5.688;2024-01-30T02:13:24;13.70;;;9.00;;
42244;SDS011;27912;51.828;5.688;2024-01-30T02:15:50;14.20;;;9.13;;
42244;SDS011;27912;51.828;5.688;2024-01-30T02:18:16;18.92;;;10.32;;
42244;SDS011;27912;51.828;5.688;2024-01-30T02:20:42;13.02;;;8.82;;
42244;SDS011;27912;51.828;5.688;2024-01-30T02:23:09;13.35;;;9.02;;
42244;SDS011;27912;51.828;5.688;2024-01-30T02:25:38;16.05;;;9.85;;
42244;SDS011;27912;51.828;5.688;2024-01-30T02:28:12;14.70;;;9.00;;
42244;SDS011;27912;51.828;5.688;2024-01-30T02:30:44;13.65;;;8.48;;
42244;SDS011;27912;51.828;5.688;2024-01-30T02:33:11;13.32;;;9.10;;
42244;SDS011;27912;51.828;5.688;2024-01-30T02:35:37;14.63;;;8.98;;
42244;SDS011;27912;51.828;5.688;2024-01-30T02:38:03;14.60;;;8.50;;
42244;SDS011;27912;51.828;5.688;2024-01-30T02:40:29;14.48;;;9.07;;
42244;SDS011;27912;51.828;5.688;2024-01-30T02:42:55;15.43;;;9.32;;
42244;SDS011;27912;51.828;5.688;2024-01-30T02:45:21;11.55;;;8.65;;
42244;SDS011;27912;51.828;5.688;2024-01-30T02:47:47;14.70;;;8.25;;
42244;SDS011;27912;51.828;5.688;2024-01-30T02:50:12;15.52;;;9.02;;
42244;SDS011;27912;51.828;5.688;2024-01-30T02:52:39;15.20;;;9.50;;
42244;SDS011;27912;51.828;5.688;2024-01-30T02:55:04;13.65;;;8.60;;
42244;SDS011;27912;51.828;5.688;2024-01-30T02:57:30;14.48;;;8.77;;
42244;SDS011;27912;51.828;5.688;2024-01-30T02:59:56;14.40;;;9.15;;
42244;SDS011;27912;51.828;5.688;2024-01-30T03:02:22;11.90;;;8.20;;
42244;SDS011;27912;51.828;5.688;2024-01-30T03:04:47;13.15;;;9.15;;
42244;SDS011;27912;51.828;5.688;2024-01-30T03:07:13;17.65;;;9.25;;
42244;SDS011;27912;51.828;5.688;2024-01-30T03:09:38;11.77;;;8.10;;
42244;SDS011;27912;51.828;5.688;2024-01-30T03:12:07;15.75;;;9.00;;
42244;SDS011;27912;51.828;5.688;2024-01-30T03:14:33;13.00;;;8.02;;
42244;SDS011;27912;51.828;5.688;2024-01-30T03:16:58;12.90;;;8.68;;
42244;SDS011;27912;51.828;5.688;2024-01-30T03:19:24;16.10;;;8.02;;
42244;SDS011;27912;51.828;5.688;2024-01-30T03:21:50;13.10;;;9.60;;
42244;SDS011;27912;51.828;5.688;2024-01-30T03:24:16;14.70;;;9.00;;
42244;SDS011;27912;51.828;5.688;2024-01-30T03:26:42;15.25;;;8.55;;
42244;SDS011;27912;51.828;5.688;2024-01-30T03:29:08;14.82;;;8.13;;
42244;SDS011;27912;51.828;5.688;2024-01-30T03:31:33;18.20;;;9.10;;
42244;SDS011;27912;51.828;5.688;2024-01-30T03:33:59;12.40;;;8.32;;
42244;SDS011;27912;51.828;5.688;2024-01-30T03:36:25;14.00;;;9.68;;
42244;SDS011;27912;51.828;5.688;2024-01-30T03:38:51;15.45;;;9.32;;
42244;SDS011;27912;51.828;5.688;2024-01-30T03:41:16;15.90;;;8.90;;
42244;SDS011;27912;51.828;5.688;2024-01-30T03:43:42;15.05;;;8.70;;
42244;SDS011;27912;51.828;5.688;2024-01-30T03:46:07;13.45;;;8.52;;
42244;SDS011;27912;51.828;5.688;2024-01-30T03:48:33;12.25;;;8.52;;
42244;SDS011;27912;51.828;5.688;2024-01-30T03:50:59;12.80;;;8.20;;
42244;SDS011;27912;51.828;5.688;2024-01-30T03:53:24;12.02;;;8.05;;
42244;SDS011;27912;51.828;5.688;2024-01-30T03:55:50;11.68;;;7.97;;
42244;SDS011;27912;51.828;5.688;2024-01-30T03:58:16;14.18;;;7.97;;
42244;SDS011;27912;51.828;5.688;2024-01-30T04:00:41;14.00;;;8.38;;
42244;SDS011;27912;51.828;5.688;2024-01-30T04:03:07;12.07;;;8.20;;
42244;SDS011;27912;51.828;5.688;2024-01-30T04:05:33;12.13;;;8.10;;
42244;SDS011;27912;51.828;5.688;2024-01-30T04:07:58;17.08;;;8.70;;
42244;SDS011;27912;51.828;5.688;2024-01-30T04:10:24;14.07;;;8.48;;
42244;SDS011;27912;51.828;5.688;2024-01-30T04:12:50;12.25;;;7.68;;
42244;SDS011;27912;51.828;5.688;2024-01-30T04:15:16;12.07;;;7.82;;
42244;SDS011;27912;51.828;5.688;2024-01-30T04:17:42;11.60;;;7.53;;
42244;SDS011;27912;51.828;5.688;2024-01-30T04:20:12;13.15;;;8.50;;
42244;SDS011;27912;51.828;5.688;2024-01-30T04:22:39;13.82;;;8.73;;
42244;SDS011;27912;51.828;5.688;2024-01-30T04:25:04;11.95;;;7.72;;
42244;SDS011;27912;51.828;5.688;2024-01-30T04:27:30;11.98;;;8.38;;
42244;SDS011;27912;51.828;5.688;2024-01-30T04:29:56;14.73;;;8.50;;
42244;SDS011;27912;51.828;5.688;2024-01-30T04:32:21;11.65;;;7.72;;
42244;SDS011;27912;51.828;5.688;2024-01-30T04:34:47;13.85;;;7.68;;
42244;SDS011;27912;51.828;5.688;2024-01-30T04:37:12;13.38;;;8.00;;
42244;SDS011;27912;51.828;5.688;2024-01-30T04:39:38;13.38;;;7.47;;
42244;SDS011;27912;51.828;5.688;2024-01-30T04:42:04;15.48;;;7.90;;
42244;SDS011;27912;51.828;5.688;2024-01-30T04:44:29;12.57;;;7.95;;
42244;SDS011;27912;51.828;5.688;2024-01-30T04:46:55;12.52;;;6.80;;
42244;SDS011;27912;51.828;5.688;2024-01-30T04:49:24;10.88;;;7.50;;
42244;SDS011;27912;51.828;5.688;2024-01-30T04:51:49;12.70;;;7.05;;
42244;SDS011;27912;51.828;5.688;2024-01-30T04:54:15;12.82;;;8.55;;
42244;SDS011;27912;51.828;5.688;2024-01-30T04:56:40;14.00;;;8.02;;
42244;SDS011;27912;51.828;5.688;2024-01-30T04:59:06;12.32;;;7.45;;
42244;SDS011;27912;51.828;5.688;2024-01-30T05:01:33;15.77;;;8.10;;
42244;SDS011;27912;51.828;5.688;2024-01-30T05:03:59;11.20;;;6.82;;
42244;SDS011;27912;51.828;5.688;2024-01-30T05:06:28;13.52;;;7.50;;
42244;SDS011;27912;51.828;5.688;2024-01-30T05:08:54;11.40;;;7.93;;
42244;SDS011;27912;51.828;5.688;2024-01-30T05:11:19;10.85;;;7.05;;
42244;SDS011;27912;51.828;5.688;2024-01-30T05:13:45;10.30;;;7.40;;
42244;SDS011;27912;51.828;5.688;2024-01-30T05:16:10;10.60;;;6.97;;
42244;SDS011;27912;51.828;5.688;2024-01-30T05:18:36;12.57;;;6.97;;
42244;SDS011;27912;51.828;5.688;2024-01-30T05:21:02;11.00;;;7.07;;
42244;SDS011;27912;51.828;5.688;2024-01-30T05:23:28;12.35;;;7.25;;
42244;SDS011;27912;51.828;5.688;2024-01-30T05:25:54;11.05;;;7.32;;
42244;SDS011;27912;51.828;5.688;2024-01-30T05:28:19;10.68;;;7.30;;
42244;SDS011;27912;51.828;5.688;2024-01-30T05:30:45;11.15;;;7.43;;
42244;SDS011;27912;51.828;5.688;2024-01-30T05:33:10;11.68;;;6.47;;
42244;SDS011;27912;51.828;5.688;2024-01-30T05:35:37;13.00;;;7.32;;
42244;SDS011;27912;51.828;5.688;2024-01-30T05:38:03;12.13;;;8.07;;
42244;SDS011;27912;51.828;5.688;2024-01-30T05:40:29;12.43;;;7.82;;
42244;SDS011;27912;51.828;5.688;2024-01-30T05:42:55;9.18;;;6.05;;
42244;SDS011;27912;51.828;5.688;2024-01-30T05:45:20;13.02;;;7.82;;
42244;SDS011;27912;51.828;5.688;2024-01-30T05:47:48;12.60;;;7.38;;
42244;SDS011;27912;51.828;5.688;2024-01-30T05:50:13;12.70;;;6.57;;
42244;SDS011;27912;51.828;5.688;2024-01-30T05:52:39;11.60;;;6.07;;
42244;SDS011;27912;51.828;5.688;2024-01-30T05:55:05;10.73;;;6.63;;
42244;SDS011;27912;51.828;5.688;2024-01-30T05:57:31;10.77;;;7.18;;
42244;SDS011;27912;51.828;5.688;2024-01-30T05:59:57;9.45;;;6.60;;
42244;SDS011;27912;51.828;5.688;2024-01-30T06:02:22;10.93;;;7.35;;
42244;SDS011;27912;51.828;5.688;2024-01-30T06:04:48;12.32;;;7.40;;
42244;SDS011;27912;51.828;5.688;2024-01-30T06:07:14;14.35;;;7.93;;
42244;SDS011;27912;51.828;5.688;2024-01-30T06:09:39;10.65;;;6.18;;
42244;SDS011;27912;51.828;5.688;2024-01-30T06:12:05;10.23;;;6.88;;
42244;SDS011;27912;51.828;5.688;2024-01-30T06:14:31;12.18;;;7.13;;
42244;SDS011;27912;51.828;5.688;2024-01-30T06:16:58;10.05;;;6.45;;
42244;SDS011;27912;51.828;5.688;2024-01-30T06:19:24;9.00;;;6.32;;
42244;SDS011;27912;51.828;5.688;2024-01-30T06:21:49;11.32;;;7.05;;
42244;SDS011;27912;51.828;5.688;2024-01-30T06:24:15;11.10;;;6.93;;
42244;SDS011;27912;51.828;5.688;2024-01-30T06:26:41;13.10;;;6.63;;
42244;SDS011;27912;51.828;5.688;2024-01-30T06:29:06;11.57;;;6.88;;
42244;SDS011;27912;51.828;5.688;2024-01-30T06:31:32;11.73;;;7.45;;
42244;SDS011;27912;51.828;5.688;2024-01-30T06:33:58;10.40;;;6.85;;
42244;SDS011;27912;51.828;5.688;2024-01-30T06:36:24;13.15;;;6.43;;
42244;SDS011;27912;51.828;5.688;2024-01-30T06:38:49;9.63;;;6.35;;
42244;SDS011;27912;51.828;5.688;2024-01-30T06:41:15;9.32;;;6.18;;
42244;SDS011;27912;51.828;5.688;2024-01-30T06:43:40;9.70;;;6.18;;
42244;SDS011;27912;51.828;5.688;2024-01-30T06:46:06;11.32;;;6.97;;
42244;SDS011;27912;51.828;5.688;2024-01-30T06:48:32;11.82;;;6.22;;
42244;SDS011;27912;51.828;5.688;2024-01-30T06:50:57;10.82;;;6.47;;
42244;SDS011;27912;51.828;5.688;2024-01-30T06:53:23;8.18;;;5.53;;
42244;SDS011;27912;51.828;5.688;2024-01-30T06:55:49;11.15;;;6.55;;
42244;SDS011;27912;51.828;5.688;2024-01-30T06:58:16;11.77;;;6.20;;
42244;SDS011;27912;51.828;5.688;2024-01-30T07:00:42;11.48;;;5.95;;
42244;SDS011;27912;51.828;5.688;2024-01-30T07:03:07;10.75;;;6.22;;
42244;SDS011;27912;51.828;5.688;2024-01-30T07:05:33;8.68;;;6.60;;
42244;SDS011;27912;51.828;5.688;2024-01-30T07:07:58;13.52;;;6.47;;
42244;SDS011;27912;51.828;5.688;2024-01-30T07:10:24;10.95;;;6.43;;
42244;SDS011;27912;51.828;5.688;2024-01-30T07:12:49;11.00;;;6.95;;
42244;SDS011;27912;51.828;5.688;2024-01-30T07:15:15;11.57;;;5.97;;
42244;SDS011;27912;51.828;5.688;2024-01-30T07:17:44;10.57;;;6.10;;
42244;SDS011;27912;51.828;5.688;2024-01-30T07:20:10;13.45;;;6.47;;
42244;SDS011;27912;51.828;5.688;2024-01-30T07:22:36;9.27;;;6.78;;
42244;SDS011;27912;51.828;5.688;2024-01-30T07:25:02;10.25;;;6.25;;
42244;SDS011;27912;51.828;5.688;2024-01-30T07:27:28;9.45;;;5.80;;
42244;SDS011;27912;51.828;5.688;2024-01-30T07:29:53;9.93;;;6.50;;
42244;SDS011;27912;51.828;5.688;2024-01-30T07:32:19;12.18;;;6.07;;
42244;SDS011;27912;51.828;5.688;2024-01-30T07:34:44;11.57;;;7.00;;
42244;SDS011;27912;51.828;5.688;2024-01-30T07:37:10;9.25;;;6.32;;
42244;SDS011;27912;51.828;5.688;2024-01-30T07:39:38;10.60;;;6.22;;
42244;SDS011;27912;51.828;5.688;2024-01-30T07:42:03;10.20;;;5.65;;
42244;SDS011;27912;51.828;5.688;2024-01-30T07:44:29;9.32;;;6.20;;
42244;SDS011;27912;51.828;5.688;2024-01-30T07:46:55;9.15;;;6.20;;
42244;SDS011;27912;51.828;5.688;2024-01-30T07:49:20;10.02;;;6.50;;
42244;SDS011;27912;51.828;5.688;2024-01-30T07:51:46;11.38;;;6.32;;
42244;SDS011;27912;51.828;5.688;2024-01-30T07:54:14;9.20;;;5.95;;
42244;SDS011;27912;51.828;5.688;2024-01-30T07:56:40;10.27;;;7.03;;
42244;SDS011;27912;51.828;5.688;2024-01-30T07:59:09;12.27;;;6.53;;
42244;SDS011;27912;51.828;5.688;2024-01-30T08:01:36;10.75;;;6.95;;
42244;SDS011;27912;51.828;5.688;2024-01-30T08:04:02;9.43;;;6.38;;
42244;SDS011;27912;51.828;5.688;2024-01-30T08:06:27;11.00;;;6.55;;
42244;SDS011;27912;51.828;5.688;2024-01-30T08:08:53;11.38;;;6.85;;
42244;SDS011;27912;51.828;5.688;2024-01-30T08:11:22;9.15;;;6.65;;
42244;SDS011;27912;51.828;5.688;2024-01-30T08:13:51;10.68;;;6.25;;
42244;SDS011;27912;51.828;5.688;2024-01-30T08:16:17;8.73;;;6.13;;
42244;SDS011;27912;51.828;5.688;2024-01-30T08:18:43;10.52;;;6.40;;
42244;SDS011;27912;51.828;5.688;2024-01-30T08:21:08;10.50;;;5.72;;
42244;SDS011;27912;51.828;5.688;2024-01-30T08:23:34;11.65;;;6.60;;
42244;SDS011;27912;51.828;5.688;2024-01-30T08:26:00;11.52;;;6.00;;
42244;SDS011;27912;51.828;5.688;2024-01-30T08:28:26;10.27;;;6.30;;
42244;SDS011;27912;51.828;5.688;2024-01-30T08:30:51;10.80;;;6.40;;
42244;SDS011;27912;51.828;5.688;2024-01-30T08:33:17;10.23;;;6.50;;
42244;SDS011;27912;51.828;5.688;2024-01-30T08:35:43;11.80;;;6.75;;
42244;SDS011;27912;51.828;5.688;2024-01-30T08:38:09;9.98;;;6.03;;
42244;SDS011;27912;51.828;5.688;2024-01-30T08:40:34;11.45;;;6.80;;
42244;SDS011;27912;51.828;5.688;2024-01-30T08:43:00;12.02;;;7.00;;
42244;SDS011;27912;51.828;5.688;2024-01-30T08:45:26;10.60;;;6.55;;
42244;SDS011;27912;51.828;5.688;2024-01-30T08:47:51;11.27;;;6.05;;
42244;SDS011;27912;51.828;5.688;2024-01-30T08:50:17;10.18;;;5.90;;
42244;SDS011;27912;51.828;5.688;2024-01-30T08:52:43;9.82;;;6.40;;
42244;SDS011;27912;51.828;5.688;2024-01-30T08:55:08;11.32;;;7.03;;
42244;SDS011;27912;51.828;5.688;2024-01-30T08:57:34;12.13;;;6.40;;
42244;SDS011;27912;51.828;5.688;2024-01-30T09:00:00;9.85;;;6.20;;
42244;SDS011;27912;51.828;5.688;2024-01-30T09:02:29;11.23;;;6.45;;
42244;SDS011;27912;51.828;5.688;2024-01-30T09:04:54;10.20;;;6.85;;
42244;SDS011;27912;51.828;5.688;2024-01-30T09:07:20;11.55;;;6.43;;
42244;SDS011;27912;51.828;5.688;2024-01-30T09:09:46;9.90;;;6.60;;
42244;SDS011;27912;51.828;5.688;2024-01-30T09:12:11;11.98;;;6.25;;
42244;SDS011;27912;51.828;5.688;2024-01-30T09:14:37;10.75;;;6.25;;
42244;SDS011;27912;51.828;5.688;2024-01-30T09:17:03;12.48;;;7.07;;
42244;SDS011;27912;51.828;5.688;2024-01-30T09:19:30;12.70;;;7.07;;
42244;SDS011;27912;51.828;5.688;2024-01-30T09:21:55;11.13;;;5.55;;
42244;SDS011;27912;51.828;5.688;2024-01-30T09:24:21;11.35;;;6.53;;
42244;SDS011;27912;51.828;5.688;2024-01-30T09:26:47;13.02;;;6.55;;
42244;SDS011;27912;51.828;5.688;2024-01-30T09:29:12;10.60;;;6.28;;
42244;SDS011;27912;51.828;5.688;2024-01-30T09:31:38;9.68;;;6.15;;
42244;SDS011;27912;51.828;5.688;2024-01-30T09:34:03;10.18;;;5.90;;
42244;SDS011;27912;51.828;5.688;2024-01-30T09:36:29;9.02;;;5.65;;
42244;SDS011;27912;51.828;5.688;2024-01-30T09:38:55;12.40;;;7.07;;
42244;SDS011;27912;51.828;5.688;2024-01-30T09:41:20;10.60;;;5.60;;
42244;SDS011;27912;51.828;5.688;2024-01-30T09:43:49;11.15;;;6.43;;
42244;SDS011;27912;51.828;5.688;2024-01-30T09:46:16;10.48;;;6.60;;
42244;SDS011;27912;51.828;5.688;2024-01-30T09:48:48;10.13;;;7.13;;
42244;SDS011;27912;51.828;5.688;2024-01-30T09:51:15;12.68;;;6.93;;
42244;SDS011;27912;51.828;5.688;2024-01-30T09:53:42;13.43;;;6.70;;
42244;SDS011;27912;51.828;5.688;2024-01-30T09:56:08;10.30;;;6.15;;
42244;SDS011;27912;51.828;5.688;2024-01-30T09:58:34;9.88;;;6.32;;
42244;SDS011;27912;51.828;5.688;2024-01-30T10:01:00;12.80;;;5.93;;
42244;SDS011;27912;51.828;5.688;2024-01-30T10:03:25;11.05;;;7.00;;
42244;SDS011;27912;51.828;5.688;2024-01-30T10:05:52;10.57;;;6.57;;
42244;SDS011;27912;51.828;5.688;2024-01-30T10:08:18;12.32;;;6.70;;
42244;SDS011;27912;51.828;5.688;2024-01-30T10:10:46;13.07;;;6.72;;
42244;SDS011;27912;51.828;5.688;2024-01-30T10:13:13;13.75;;;6.85;;
42244;SDS011;27912;51.828;5.688;2024-01-30T10:15:39;13.68;;;7.40;;
42244;SDS011;27912;51.828;5.688;2024-01-30T10:18:05;11.10;;;6.15;;
42244;SDS011;27912;51.828;5.688;2024-01-30T10:20:31;11.27;;;6.97;;
42244;SDS011;27912;51.828;5.688;2024-01-30T10:22:57;11.68;;;6.18;;
42244;SDS011;27912;51.828;5.688;2024-01-30T10:25:24;10.07;;;6.38;;
42244;SDS011;27912;51.828;5.688;2024-01-30T10:27:54;11.73;;;7.05;;
42244;SDS011;27912;51.828;5.688;2024-01-30T10:30:20;12.60;;;6.40;;
42244;SDS011;27912;51.828;5.688;2024-01-30T10:32:49;11.07;;;6.80;;
42244;SDS011;27912;51.828;5.688;2024-01-30T10:35:15;13.75;;;6.93;;
42244;SDS011;27912;51.828;5.688;2024-01-30T10:37:44;14.60;;;6.88;;
42244;SDS011;27912;51.828;5.688;2024-01-30T10:40:12;11.60;;;6.35;;
42244;SDS011;27912;51.828;5.688;2024-01-30T10:42:42;11.90;;;6.47;;
42244;SDS011;27912;51.828;5.688;2024-01-30T10:45:09;13.90;;;6.28;;
42244;SDS011;27912;51.828;5.688;2024-01-30T10:47:52;15.35;;;7.07;;
42244;SDS011;27912;51.828;5.688;2024-01-30T10:50:23;10.45;;;6.53;;
42244;SDS011;27912;51.828;5.688;2024-01-30T10:52:49;11.38;;;6.85;;
42244;SDS011;27912;51.828;5.688;2024-01-30T10:55:16;11.15;;;6.88;;
42244;SDS011;27912;51.828;5.688;2024-01-30T10:57:43;14.80;;;6.85;;
42244;SDS011;27912;51.828;5.688;2024-01-30T11:00:09;13.80;;;6.00;;
42244;SDS011;27912;51.828;5.688;2024-01-30T11:02:40;10.23;;;6.07;;
42244;SDS011;27912;51.828;5.688;2024-01-30T11:07:35;12.63;;;5.60;;
42244;SDS011;27912;51.828;5.688;2024-01-30T11:10:02;10.02;;;5.43;;
42244;SDS011;27912;51.828;5.688;2024-01-30T11:12:32;12.40;;;5.97;;
42244;SDS011;27912;51.828;5.688;2024-01-30T11:15:08;6.88;;;4.88;;
42244;SDS011;27912;51.828;5.688;2024-01-30T11:17:44;11.27;;;6.30;;
42244;SDS011;27912;51.828;5.688;2024-01-30T11:20:15;10.65;;;5.38;;
42244;SDS011;27912;51.828;5.688;2024-01-30T11:23:01;9.52;;;5.47;;
42244;SDS011;27912;51.828;5.688;2024-01-30T11:25:31;12.23;;;4.65;;
42244;SDS011;27912;51.828;5.688;2024-01-30T11:27:57;10.38;;;5.05;;
42244;SDS011;27912;51.828;5.688;2024-01-30T11:30:23;10.57;;;5.65;;
42244;SDS011;27912;51.828;5.688;2024-01-30T11:33:06;12.73;;;5.72;;
42244;SDS011;27912;51.828;5.688;2024-01-30T11:35:37;11.45;;;5.70;;
42244;SDS011;27912;51.828;5.688;2024-01-30T11:38:07;8.90;;;5.20;;
42244;SDS011;27912;51.828;5.688;2024-01-30T11:40:35;9.40;;;5.20;;
42244;SDS011;27912;51.828;5.688;2024-01-30T11:43:03;10.70;;;6.10;;
42244;SDS011;27912;51.828;5.688;2024-01-30T11:45:29;9.98;;;4.93;;
42244;SDS011;27912;51.828;5.688;2024-01-30T11:47:55;7.50;;;4.55;;
42244;SDS011;27912;51.828;5.688;2024-01-30T11:50:22;12.43;;;4.78;;
42244;SDS011;27912;51.828;5.688;2024-01-30T11:52:47;8.57;;;3.65;;
42244;SDS011;27912;51.828;5.688;2024-01-30T11:55:16;6.72;;;3.47;;
42244;SDS011;27912;51.828;5.688;2024-01-30T11:57:43;11.60;;;4.45;;
42244;SDS011;27912;51.828;5.688;2024-01-30T12:00:16;6.28;;;3.35;;
42244;SDS011;27912;51.828;5.688;2024-01-30T12:02:43;6.32;;;2.83;;
42244;SDS011;27912;51.828;5.688;2024-01-30T12:05:13;10.68;;;3.17;;
42244;SDS011;27912;51.828;5.688;2024-01-30T12:07:39;9.40;;;3.60;;
42244;SDS011;27912;51.828;5.688;2024-01-30T12:10:05;6.30;;;3.15;;
42244;SDS011;27912;51.828;5.688;2024-01-30T12:12:30;8.30;;;3.00;;
42244;SDS011;27912;51.828;5.688;2024-01-30T12:14:56;5.25;;;2.95;;
42244;SDS011;27912;51.828;5.688;2024-01-30T12:17:32;4.93;;;2.45;;
42244;SDS011;27912;51.828;5.688;2024-01-30T12:20:03;6.28;;;2.45;;
42244;SDS011;27912;51.828;5.688;2024-01-30T12:22:31;7.13;;;2.30;;
42244;SDS011;27912;51.828;5.688;2024-01-30T12:25:07;5.32;;;1.90;;
42244;SDS011;27912;51.828;5.688;2024-01-30T12:27:34;6.38;;;1.50;;
42244;SDS011;27912;51.828;5.688;2024-01-30T12:30:00;3.65;;;1.00;;
42244;SDS011;27912;51.828;5.688;2024-01-30T12:32:26;3.75;;;0.75;;
42244;SDS011;27912;51.828;5.688;2024-01-30T12:34:54;2.60;;;0.80;;
42244;SDS011;27912;51.828;5.688;2024-01-30T12:37:21;5.13;;;0.77;;
42244;SDS011;27912;51.828;5.688;2024-01-30T12:39:49;4.28;;;0.70;;
42244;SDS011;27912;51.828;5.688;2024-01-30T12:42:16;3.92;;;0.70;;
42244;SDS011;27912;51.828;5.688;2024-01-30T12:44:42;5.57;;;1.00;;
42244;SDS011;27912;51.828;5.688;2024-01-30T12:47:08;5.07;;;0.80;;
42244;SDS011;27912;51.828;5.688;2024-01-30T12:49:35;5.72;;;0.75;;
42244;SDS011;27912;51.828;5.688;2024-01-30T12:52:00;4.65;;;0.60;;
42244;SDS011;27912;51.828;5.688;2024-01-30T12:54:26;3.40;;;0.63;;
42244;SDS011;27912;51.828;5.688;2024-01-30T12:56:52;4.97;;;0.75;;
42244;SDS011;27912;51.828;5.688;2024-01-30T12:59:18;5.22;;;0.45;;
42244;SDS011;27912;51.828;5.688;2024-01-30T13:01:43;2.53;;;0.57;;
42244;SDS011;27912;51.828;5.688;2024-01-30T13:04:09;8.00;;;0.45;;
42244;SDS011;27912;51.828;5.688;2024-01-30T13:06:36;2.03;;;0.28;;
42244;SDS011;27912;51.828;5.688;2024-01-30T13:09:01;3.10;;;0.40;;
42244;SDS011;27912;51.828;5.688;2024-01-30T13:11:27;1.60;;;0.20;;
42244;SDS011;27912;51.828;5.688;2024-01-30T13:13:53;4.13;;;0.45;;
42244;SDS011;27912;51.828;5.688;2024-01-30T13:16:19;4.10;;;0.57;;
42244;SDS011;27912;51.828;5.688;2024-01-30T13:18:44;1.58;;;0.28;;
42244;SDS011;27912;51.828;5.688;2024-01-30T13:21:10;1.25;;;0.20;;
42244;SDS011;27912;51.828;5.688;2024-01-30T13:23:35;3.00;;;0.40;;
42244;SDS011;27912;51.828;5.688;2024-01-30T13:26:01;1.58;;;0.40;;
42244;SDS011;27912;51.828;5.688;2024-01-30T13:28:27;1.15;;;0.17;;
42244;SDS011;27912;51.828;5.688;2024-01-30T13:30:53;1.25;;;0.20;;
42244;SDS011;27912;51.828;5.688;2024-01-30T13:33:18;2.75;;;0.20;;
42244;SDS011;27912;51.828;5.688;2024-01-30T13:35:44;0.98;;;0.13;;
42244;SDS011;27912;51.828;5.688;2024-01-30T13:38:09;2.92;;;0.20;;
42244;SDS011;27912;51.828;5.688;2024-01-30T13:40:35;3.38;;;0.20;;
42244;SDS011;27912;51.828;5.688;2024-01-30T13:43:01;2.97;;;0.20;;
42244;SDS011;27912;51.828;5.688;2024-01-30T13:45:26;1.15;;;0.30;;
42244;SDS011;27912;51.828;5.688;2024-01-30T13:47:52;4.82;;;0.32;;
42244;SDS011;27912;51.828;5.688;2024-01-30T13:50:18;0.88;;;0.20;;
42244;SDS011;27912;51.828;5.688;2024-01-30T13:52:43;3.47;;;0.43;;
42244;SDS011;27912;51.828;5.688;2024-01-30T13:55:09;5.25;;;0.60;;
42244;SDS011;27912;51.828;5.688;2024-01-30T13:57:35;8.43;;;1.10;;
42244;SDS011;27912;51.828;5.688;2024-01-30T14:00:05;8.38;;;1.30;;
42244;SDS011;27912;51.828;5.688;2024-01-30T14:02:31;8.00;;;2.25;;
42244;SDS011;27912;51.828;5.688;2024-01-30T14:04:57;5.80;;;1.35;;
42244;SDS011;27912;51.828;5.688;2024-01-30T14:07:23;7.25;;;2.28;;
42244;SDS011;27912;51.828;5.688;2024-01-30T14:09:49;13.57;;;2.70;;
42244;SDS011;27912;51.828;5.688;2024-01-30T14:12:14;11.18;;;2.58;;
42244;SDS011;27912;51.828;5.688;2024-01-30T14:14:40;6.63;;;2.63;;
42244;SDS011;27912;51.828;5.688;2024-01-30T14:17:06;5.13;;;3.05;;
42244;SDS011;27912;51.828;5.688;2024-01-30T14:19:35;9.50;;;3.67;;
42244;SDS011;27912;51.828;5.688;2024-01-30T14:22:01;9.65;;;3.95;;
42244;SDS011;27912;51.828;5.688;2024-01-30T14:24:27;9.00;;;3.50;;
42244;SDS011;27912;51.828;5.688;2024-01-30T14:26:52;8.98;;;4.22;;
42244;SDS011;27912;51.828;5.688;2024-01-30T14:29:18;8.52;;;3.78;;
42244;SDS011;27912;51.828;5.688;2024-01-30T14:31:43;7.65;;;3.58;;
42244;SDS011;27912;51.828;5.688;2024-01-30T14:34:09;9.55;;;3.63;;
42244;SDS011;27912;51.828;5.688;2024-01-30T14:36:36;6.45;;;3.90;;
42244;SDS011;27912;51.828;5.688;2024-01-30T14:39:02;8.43;;;3.67;;